Time;durP1;ratioP1;P1;durP2;ratioP2;P2;SDS_P1;SDS_P2;PMS_P1;PMS_P2;Temp;Humidity;BMP_temperature;BMP_pressure;BME280_temperature;BME280_humidity;BME280_pressure;Samples;Min_cycle;Max_cycle;Signal;HPM_P1;HPM_P2
2022/08/19 00:01:46;;;;;;;0.00;0.00;;;21.10;99.90;;;;;;5020120;28;20532;-76
2022/08/19 00:04:21;;;;;;;0.00;0.00;;;21.10;99.90;;;;;;5020432;28;20445;-76
2022/08/19 00:06:49;;;;;;;0.00;0.00;;;21.00;99.90;;;;;;5020453;28;20477;-76
2022/08/19 00:09:20;;;;;;;0.00;0.00;;;21.00;99.90;;;;;;5020636;28;21067;-76
2022/08/19 00:11:47;;;;;;;0.00;0.00;;;21.00;99.90;;;;;;5020757;28;21052;-76
2022/08/19 00:14:17;;;;;;;0.00;0.00;;;20.90;99.90;;;;;;5020313;28;20557;-76
2022/08/19 00:16:48;;;;;;;0.00;0.00;;;20.90;99.90;;;;;;5021086;28;20521;-76
2022/08/19 00:19:17;;;;;;;0.00;0.00;;;20.90;99.90;;;;;;5020255;28;20465;-75
2022/08/19 00:21:45;;;;;;;0.00;0.00;;;20.80;99.90;;;;;;5020691;28;20484;-76
2022/08/19 00:24:15;;;;;;;0.00;0.00;;;20.80;99.90;;;;;;5020660;28;20794;-77
2022/08/19 00:26:43;;;;;;;0.00;0.00;;;20.80;99.90;;;;;;5020347;28;20483;-76
2022/08/19 00:29:14;;;;;;;0.00;0.00;;;20.80;99.90;;;;;;5020705;28;20453;-76
2022/08/19 00:31:42;;;;;;;0.00;0.00;;;20.80;99.90;;;;;;5020938;28;21037;-76
2022/08/19 00:34:13;;;;;;;0.00;0.00;;;20.80;99.90;;;;;;5020286;28;20450;-76
2022/08/19 00:36:42;;;;;;;0.00;0.00;;;20.80;99.90;;;;;;5020065;28;20887;-75
2022/08/19 00:39:11;;;;;;;0.00;0.00;;;20.80;99.90;;;;;;5019730;28;20461;-75
2022/08/19 00:41:39;;;;;;;0.00;0.00;;;20.80;99.90;;;;;;5019793;28;20447;-76
2022/08/19 00:44:12;;;;;;;0.00;0.00;;;20.70;99.90;;;;;;5019663;28;20469;-76
2022/08/19 00:46:43;;;;;;;0.00;0.00;;;20.70;99.90;;;;;;5019468;28;20587;-77
2022/08/19 00:49:16;;;;;;;0.00;0.00;;;20.80;99.90;;;;;;5019420;28;20461;-77
2022/08/19 00:51:47;;;;;;;0.00;0.00;;;20.70;99.90;;;;;;5019585;28;20510;-77
2022/08/19 00:54:15;;;;;;;0.00;0.00;;;20.70;99.90;;;;;;5019587;28;20641;-76
2022/08/19 00:56:45;;;;;;;0.00;0.00;;;20.70;99.90;;;;;;5018882;28;20437;-76
2022/08/19 00:59:14;;;;;;;0.00;0.00;;;20.80;99.90;;;;;;5019325;28;20932;-77
2022/08/19 01:02:02;;;;;;;0.00;0.00;;;20.80;99.90;;;;;;5019567;28;20445;-76
2022/08/19 01:04:32;;;;;;;0.00;0.00;;;20.70;99.90;;;;;;5019206;28;20448;-76
2022/08/19 01:07:03;;;;;;;0.00;0.00;;;20.70;99.90;;;;;;5018819;28;20773;-76
2022/08/19 01:09:32;;;;;;;0.00;0.00;;;20.70;99.90;;;;;;5018766;28;20458;-77
2022/08/19 01:12:00;;;;;;;0.00;0.00;;;20.70;99.90;;;;;;5019095;28;20469;-77
2022/08/19 01:14:28;;;;;;;0.00;0.00;;;20.70;99.90;;;;;;5018868;28;20607;-77
2022/08/19 01:16:56;;;;;;;0.00;0.00;;;20.80;99.90;;;;;;5018734;28;20475;-77
2022/08/19 01:19:34;;;;;;;0.00;0.00;;;20.80;99.90;;;;;;5018136;28;20786;-76
2022/08/19 01:22:16;;;;;;;0.00;0.00;;;20.80;99.90;;;;;;5019035;28;20422;-76
2022/08/19 01:24:53;;;;;;;0.00;0.00;;;20.80;99.90;;;;;;5020864;28;20530;-75
2022/08/19 01:27:22;;;;;;;0.00;0.00;;;20.80;99.90;;;;;;5026791;28;20481;-75
2022/08/19 01:29:51;;;;;;;0.00;0.00;;;20.80;99.90;;;;;;5017955;28;20764;-75
2022/08/19 01:32:20;;;;;;;0.00;0.00;;;20.80;99.90;;;;;;5018265;28;20490;-75
2022/08/19 01:35:02;;;;;;;0.00;0.00;;;20.80;99.90;;;;;;5022007;28;20661;-75
2022/08/19 01:37:31;;;;;;;0.00;0.00;;;20.80;99.90;;;;;;5038119;28;20456;-75
2022/08/19 01:40:00;;;;;;;0.00;0.00;;;20.80;99.90;;;;;;5037967;28;20527;-75
2022/08/19 01:42:28;;;;;;;0.00;0.00;;;20.80;99.90;;;;;;5038042;28;20725;-74
2022/08/19 01:44:57;;;;;;;0.00;0.00;;;20.80;99.90;;;;;;5032134;28;20457;-75
2022/08/19 01:47:25;;;;;;;0.00;0.00;;;20.80;99.90;;;;;;5025266;28;20484;-74
2022/08/19 01:49:53;;;;;;;0.00;0.00;;;20.90;99.90;;;;;;5017985;28;20980;-75
2022/08/19 01:52:20;;;;;;;0.00;0.00;;;20.90;99.90;;;;;;5017641;28;20998;-74
2022/08/19 01:54:49;;;;;;;0.00;0.00;;;20.80;99.90;;;;;;5018064;28;20441;-76
2022/08/19 01:57:19;;;;;;;0.00;0.00;;;20.80;99.90;;;;;;5017843;28;20436;-74
2022/08/19 01:59:47;;;;;;;0.00;0.00;;;20.80;99.90;;;;;;5017993;28;20850;-77
2022/08/19 02:02:15;;;;;;;0.00;0.00;;;20.80;99.90;;;;;;5019982;28;20445;-75
2022/08/19 02:04:43;;;;;;;0.00;0.00;;;20.70;99.90;;;;;;5021541;28;20437;-74
2022/08/19 02:07:11;;;;;;;0.00;0.00;;;20.70;99.90;;;;;;5017578;28;20631;-75
2022/08/19 02:09:39;;;;;;;0.00;0.00;;;20.70;99.90;;;;;;5017083;28;21030;-74
2022/08/19 02:12:08;;;;;;;0.00;0.00;;;20.70;99.90;;;;;;5017671;28;20552;-75
2022/08/19 02:14:37;;;;;;;0.00;0.00;;;20.60;99.90;;;;;;5017791;28;20452;-74
2022/08/19 02:20:24;;;;;;;0.00;0.00;;;20.60;99.90;;;;;;5840354;23;20476;-73
2022/08/19 02:22:52;;;;;;;0.00;0.00;;;20.60;99.90;;;;;;5020732;28;20466;-75
2022/08/19 02:25:20;;;;;;;0.00;0.00;;;20.60;99.90;;;;;;5019930;28;20445;-76
2022/08/19 02:27:48;;;;;;;0.00;0.00;;;20.50;99.90;;;;;;5018732;28;20485;-76
2022/08/19 02:30:18;;;;;;;0.00;0.00;;;20.60;99.90;;;;;;5018124;28;20437;-76
2022/08/19 02:32:46;;;;;;;0.00;0.00;;;20.60;99.90;;;;;;5019004;28;20445;-74
2022/08/19 02:35:15;;;;;;;0.00;0.00;;;20.60;99.90;;;;;;5020227;28;20449;-76
2022/08/19 02:40:29;;;;;;;0.00;0.00;;;20.60;99.90;;;;;;5022981;28;20960;-76
2022/08/19 02:42:57;;;;;;;0.00;0.00;;;20.60;99.90;;;;;;5022749;28;20443;-76
2022/08/19 02:45:26;;;;;;;0.00;0.00;;;20.60;99.90;;;;;;5023139;28;20443;-75
2022/08/19 02:47:56;;;;;;;0.00;0.00;;;20.60;99.90;;;;;;5022830;28;20485;-76
2022/08/19 02:50:24;;;;;;;0.00;0.00;;;20.60;99.90;;;;;;5022549;28;20445;-75
2022/08/19 02:52:52;;;;;;;0.00;0.00;;;20.60;99.90;;;;;;5023618;28;20832;-76
2022/08/19 02:55:20;;;;;;;0.00;0.00;;;20.50;99.90;;;;;;5024952;28;20940;-75
2022/08/19 02:57:48;;;;;;;0.00;0.00;;;20.40;99.90;;;;;;5022894;28;20531;-76
2022/08/19 03:00:17;;;;;;;0.00;0.00;;;20.40;99.90;;;;;;5022205;28;20440;-76
2022/08/19 03:02:46;;;;;;;0.00;0.00;;;20.40;99.90;;;;;;5022071;28;20528;-75
2022/08/19 03:05:14;;;;;;;0.00;0.00;;;20.40;99.90;;;;;;5022329;28;20548;-76
2022/08/19 03:07:42;;;;;;;0.00;0.00;;;20.30;99.90;;;;;;5021586;28;20515;-76
2022/08/19 03:10:10;;;;;;;0.00;0.00;;;20.30;99.90;;;;;;5021787;28;20599;-75
2022/08/19 03:12:38;;;;;;;0.00;0.00;;;20.30;99.90;;;;;;5022013;28;20452;-75
2022/08/19 03:15:08;;;;;;;0.00;0.00;;;20.30;99.90;;;;;;5025654;28;20472;-75
2022/08/19 03:17:36;;;;;;;0.00;0.00;;;20.30;99.90;;;;;;5030277;28;21019;-75
2022/08/19 03:20:06;;;;;;;0.00;0.00;;;20.30;99.90;;;;;;5031010;28;20462;-77
2022/08/19 03:22:34;;;;;;;0.00;0.00;;;20.30;99.90;;;;;;5041756;28;20456;-76
2022/08/19 03:25:03;;;;;;;0.00;0.00;;;20.30;99.90;;;;;;5029082;28;20441;-80
2022/08/19 03:27:31;;;;;;;0.00;0.00;;;20.30;99.90;;;;;;5022341;28;21054;-76
2022/08/19 03:30:02;;;;;;;0.00;0.00;;;20.30;99.90;;;;;;5021533;28;21165;-76
2022/08/19 03:32:30;;;;;;;0.00;0.00;;;20.30;99.90;;;;;;5021744;28;20461;-76
2022/08/19 03:34:59;;;;;;;0.00;0.00;;;20.30;99.90;;;;;;5021981;28;20874;-76
2022/08/19 03:37:29;;;;;;;0.00;0.00;;;20.30;99.90;;;;;;5021613;28;20524;-75
2022/08/19 03:39:57;;;;;;;0.00;0.00;;;20.30;99.90;;;;;;5021166;28;21063;-75
2022/08/19 03:42:26;;;;;;;0.00;0.00;;;20.30;99.90;;;;;;5021625;28;20444;-76
2022/08/19 03:45:14;;;;;;;0.00;0.00;;;20.30;99.90;;;;;;5030131;28;20945;-75
2022/08/19 03:47:42;;;;;;;0.00;0.00;;;20.30;99.90;;;;;;5020156;28;20481;-75
2022/08/19 03:50:10;;;;;;;0.00;0.00;;;20.30;99.90;;;;;;5038104;28;21026;-75
2022/08/19 03:52:40;;;;;;;0.00;0.00;;;20.20;99.90;;;;;;5040883;28;20433;-76
2022/08/19 03:55:14;;;;;;;0.00;0.00;;;20.10;99.90;;;;;;5041475;28;20470;-76
2022/08/19 03:57:42;;;;;;;0.00;0.00;;;20.20;99.90;;;;;;5040966;28;20444;-76
2022/08/19 04:00:11;;;;;;;0.00;0.00;;;20.20;99.90;;;;;;5040925;28;20440;-76
2022/08/19 04:02:41;;;;;;;0.00;0.00;;;20.20;99.90;;;;;;5040456;28;20433;-76
2022/08/19 04:05:09;;;;;;;0.00;0.00;;;20.20;99.90;;;;;;5040893;28;20440;-76
2022/08/19 04:07:37;;;;;;;0.00;0.00;;;20.20;99.90;;;;;;5040945;28;20486;-77
2022/08/19 04:10:07;;;;;;;0.00;0.00;;;20.20;99.90;;;;;;5044957;28;20440;-76
2022/08/19 04:12:37;;;;;;;0.00;0.00;;;20.30;99.90;;;;;;5050412;28;20428;-75
2022/08/19 04:15:06;;;;;;;0.00;0.00;;;20.30;99.90;;;;;;5041184;28;20444;-74
2022/08/19 04:17:33;;;;;;;0.00;0.00;;;20.30;99.90;;;;;;5040562;28;20449;-76
2022/08/19 04:20:01;;;;;;;0.00;0.00;;;20.30;99.90;;;;;;5040703;28;20440;-74
2022/08/19 04:22:34;;;;;;;0.00;0.00;;;20.20;99.90;;;;;;5040358;28;20464;-72
2022/08/19 04:25:02;;;;;;;0.00;0.00;;;20.20;99.90;;;;;;5040254;28;20527;-72
2022/08/19 04:27:31;;;;;;;0.00;0.00;;;20.30;99.90;;;;;;5040303;28;20462;-71
2022/08/19 04:29:58;;;;;;;0.00;0.00;;;20.30;99.90;;;;;;5039681;28;21133;-69
2022/08/19 04:32:27;;;;;;;0.00;0.00;;;20.30;99.90;;;;;;5039897;28;20435;-69
2022/08/19 04:34:56;;;;;;;0.00;0.00;;;20.20;99.90;;;;;;5040015;28;20440;-75
2022/08/19 04:37:43;;;;;;;0.00;0.00;;;20.20;99.90;;;;;;5039919;28;20480;-75
2022/08/19 04:42:58;;;;;;;0.00;0.00;;;20.30;99.90;;;;;;5039845;28;20428;-75
2022/08/19 04:45:26;;;;;;;0.00;0.00;;;20.30;99.90;;;;;;5038047;28;20444;-75
2022/08/19 04:48:02;;;;;;;0.00;0.00;;;20.30;99.90;;;;;;5025084;28;20586;-75
2022/08/19 04:50:50;;;;;;;0.00;0.00;;;20.20;99.90;;;;;;5019596;28;20433;-76
2022/08/19 04:53:18;;;;;;;0.00;0.00;;;20.20;99.90;;;;;;5020374;28;20437;-75
2022/08/19 04:55:46;;;;;;;0.00;0.00;;;20.20;99.90;;;;;;5020001;28;20519;-76
2022/08/19 04:58:16;;;;;;;0.00;0.00;;;20.20;99.90;;;;;;5019529;28;20467;-76
2022/08/19 05:00:44;;;;;;;0.00;0.00;;;20.10;99.90;;;;;;5019531;28;20441;-75
2022/08/19 05:03:12;;;;;;;0.00;0.00;;;20.10;99.90;;;;;;5020470;28;20445;-75
2022/08/19 05:05:41;;;;;;;0.00;0.00;;;20.10;99.90;;;;;;5030703;28;20468;-75
2022/08/19 05:08:12;;;;;;;0.00;0.00;;;20.10;99.90;;;;;;5021024;28;20491;-76
2022/08/19 05:10:42;;;;;;;0.00;0.00;;;20.10;99.90;;;;;;5019212;28;20468;-76
2022/08/19 05:13:10;;;;;;;0.00;0.00;;;20.10;99.90;;;;;;5019626;28;20441;-75
2022/08/19 05:15:40;;;;;;;0.00;0.00;;;20.10;99.90;;;;;;5019613;28;20532;-75
2022/08/19 05:23:39;;;;;;;0.00;0.00;;;20.20;99.90;;;;;;5021513;28;20448;-74
2022/08/19 05:26:06;;;;;;;0.00;0.00;;;20.30;99.90;;;;;;5038253;28;20535;-75
2022/08/19 05:28:34;;;;;;;0.00;0.00;;;20.20;99.90;;;;;;5032323;28;20495;-75
2022/08/19 05:31:04;;;;;;;0.00;0.00;;;20.30;99.90;;;;;;5038320;28;20452;-75
2022/08/19 05:33:32;;;;;;;0.00;0.00;;;20.30;99.90;;;;;;5039734;28;20478;-74
2022/08/19 05:36:01;;;;;;;0.00;0.00;;;20.30;99.90;;;;;;5041355;28;20513;-72
2022/08/19 05:38:29;;;;;;;0.00;0.00;;;20.30;99.90;;;;;;5040294;28;20452;-76
2022/08/19 05:40:58;;;;;;;0.00;0.00;;;20.20;99.90;;;;;;5040549;28;20444;-74
2022/08/19 05:43:26;;;;;;;0.00;0.00;;;20.20;99.90;;;;;;5048042;28;20459;-75
2022/08/19 05:45:54;;;;;;;0.00;0.00;;;20.30;99.90;;;;;;5041583;28;20431;-76
2022/08/19 05:48:24;;;;;;;0.00;0.00;;;20.20;99.90;;;;;;5036247;28;20487;-74
2022/08/19 05:50:52;;;;;;;0.00;0.00;;;20.20;99.90;;;;;;5018867;28;20460;-75
2022/08/19 05:53:20;;;;;;;0.00;0.00;;;20.20;99.90;;;;;;5019088;28;20530;-74
2022/08/19 05:55:48;;;;;;;0.00;0.00;;;20.10;99.90;;;;;;5019240;28;20521;-76
2022/08/19 05:58:16;;;;;;;0.00;0.00;;;20.20;99.90;;;;;;5018948;28;20468;-71
2022/08/19 06:00:45;;;;;;;0.00;0.00;;;20.20;99.90;;;;;;5018653;28;20441;-72
2022/08/19 06:03:13;;;;;;;0.00;0.00;;;20.20;99.90;;;;;;5022448;28;20841;-71
2022/08/19 06:05:42;;;;;;;0.00;0.00;;;20.20;99.90;;;;;;5018661;28;20521;-69
2022/08/19 06:08:19;;;;;;;0.00;0.00;;;20.30;99.90;;;;;;5019598;28;20473;-70
2022/08/19 06:11:15;;;;;;;0.00;0.00;;;20.30;99.90;;;;;;5018159;28;20452;-70
2022/08/19 06:13:44;;;;;;;0.00;0.00;;;20.30;99.90;;;;;;5019345;28;20456;-69
2022/08/19 06:16:12;;;;;;;0.00;0.00;;;20.30;99.90;;;;;;5026403;28;20661;-69
2022/08/19 06:18:40;;;;;;;0.00;0.00;;;20.30;99.90;;;;;;5029254;28;20489;-68
2022/08/19 06:21:09;;;;;;;0.00;0.00;;;20.30;99.90;;;;;;5033249;28;20472;-68
2022/08/19 06:23:37;;;;;;;0.00;0.00;;;20.20;99.90;;;;;;5038541;28;20440;-69
2022/08/19 06:26:05;;;;;;;0.00;0.00;;;20.20;99.90;;;;;;5036440;28;20479;-69
2022/08/19 06:28:33;;;;;;;0.00;0.00;;;20.20;99.90;;;;;;5018624;28;20453;-69
2022/08/19 06:31:07;;;;;;;0.00;0.00;;;20.30;99.90;;;;;;5036353;28;20547;-73
2022/08/19 06:33:35;;;;;;;0.00;0.00;;;20.30;99.90;;;;;;5038540;28;20497;-75
2022/08/19 06:36:04;;;;;;;0.00;0.00;;;20.40;99.90;;;;;;5038638;28;20528;-75
2022/08/19 06:38:34;;;;;;;0.00;0.00;;;20.40;99.90;;;;;;5029862;28;20572;-73
2022/08/19 06:41:03;;;;;;;0.00;0.00;;;20.50;99.90;;;;;;5019983;28;21118;-73
2022/08/19 06:43:35;;;;;;;0.00;0.00;;;20.50;99.90;;;;;;5023347;28;20519;-73
2022/08/19 06:46:12;;;;;;;0.00;0.00;;;20.60;99.90;;;;;;5023498;28;20951;-73
2022/08/19 06:48:42;;;;;;;0.00;0.00;;;20.60;99.90;;;;;;5032587;28;20482;-72
2022/08/19 06:51:15;;;;;;;0.00;0.00;;;20.70;99.90;;;;;;5040425;28;20710;-72
2022/08/19 06:53:48;;;;;;;0.00;0.00;;;20.70;99.90;;;;;;5036333;28;20457;-72
2022/08/19 06:56:21;;;;;;;0.00;0.00;;;20.70;99.90;;;;;;5038093;28;20464;-73
2022/08/19 06:58:52;;;;;;;0.00;0.00;;;20.80;99.90;;;;;;5028658;28;20490;-73
2022/08/19 07:01:21;;;;;;;0.00;0.00;;;20.80;99.90;;;;;;5028470;28;20454;-73
2022/08/19 07:03:49;;;;;;;0.00;0.00;;;20.70;99.90;;;;;;5022144;28;20459;-67
2022/08/19 07:06:19;;;;;;;0.00;0.00;;;20.80;99.90;;;;;;5026508;28;20573;-70
2022/08/19 07:09:12;;;;;;;0.00;0.00;;;20.70;99.90;;;;;;5031274;28;20482;-70
2022/08/19 07:11:46;;;;;;;0.00;0.00;;;20.70;99.90;;;;;;5037871;28;20452;-70
2022/08/19 07:14:18;;;;;;;0.00;0.00;;;20.60;99.90;;;;;;5038519;28;20440;-70
2022/08/19 07:16:48;;;;;;;0.00;0.00;;;20.70;99.90;;;;;;5032271;28;20519;-65
2022/08/19 07:19:17;;;;;;;0.00;0.00;;;20.70;99.90;;;;;;5036871;28;20527;-65
2022/08/19 07:21:46;;;;;;;0.00;0.00;;;20.70;99.90;;;;;;5040768;28;20947;-67
2022/08/19 07:24:16;;;;;;;0.00;0.00;;;20.70;99.90;;;;;;5041423;28;20470;-67
2022/08/19 07:26:44;;;;;;;0.00;0.00;;;20.70;99.90;;;;;;5041506;28;20446;-67
2022/08/19 07:29:13;;;;;;;0.00;0.00;;;20.70;99.90;;;;;;5041415;28;20555;-67
2022/08/19 07:31:41;;;;;;;0.00;0.00;;;20.70;99.90;;;;;;5041312;28;21171;-67
2022/08/19 07:34:13;;;;;;;0.00;0.00;;;20.80;99.90;;;;;;5041065;28;21026;-67
2022/08/19 07:36:42;;;;;;;0.00;0.00;;;20.80;99.90;;;;;;5023250;28;20524;-69
2022/08/19 07:39:13;;;;;;;0.00;0.00;;;20.90;99.90;;;;;;5037399;28;20472;-67
2022/08/19 07:41:43;;;;;;;0.00;0.00;;;21.00;99.90;;;;;;5024280;28;20545;-67
2022/08/19 07:44:12;;;;;;;0.00;0.00;;;21.00;99.90;;;;;;5042342;28;20436;-67
2022/08/19 07:46:44;;;;;;;0.00;0.00;;;21.10;99.90;;;;;;5045921;28;20448;-67
2022/08/19 07:49:19;;;;;;;0.00;0.00;;;21.10;99.90;;;;;;5027644;28;20492;-67
2022/08/19 07:51:49;;;;;;;0.00;0.00;;;21.00;99.90;;;;;;5036019;28;21137;-67
2022/08/19 07:54:18;;;;;;;0.00;0.00;;;21.00;99.90;;;;;;5029970;28;21139;-67
2022/08/19 07:56:47;;;;;;;0.00;0.00;;;21.00;99.90;;;;;;5041416;28;20440;-67
2022/08/19 07:59:20;;;;;;;0.00;0.00;;;21.10;99.90;;;;;;5040338;28;20839;-67
2022/08/19 08:01:49;;;;;;;0.00;0.00;;;21.20;99.90;;;;;;5041154;28;21016;-68
2022/08/19 08:09:50;;;;;;;0.00;0.00;;;21.40;99.90;;;;;;5026461;28;20489;-67
2022/08/19 08:12:22;;;;;;;0.00;0.00;;;21.40;99.90;;;;;;5024532;28;21197;-68
2022/08/19 08:15:05;;;;;;;0.00;0.00;;;21.30;99.90;;;;;;5030184;28;20464;-67
2022/08/19 08:17:36;;;;;;;0.00;0.00;;;21.30;99.90;;;;;;5022913;28;20510;-65
2022/08/19 08:20:19;;;;;;;0.00;0.00;;;21.30;99.90;;;;;;5042367;28;20452;-67
2022/08/19 08:25:35;;;;;;;0.00;0.00;;;21.40;99.90;;;;;;5028475;28;20625;-66
2022/08/19 08:28:08;;;;;;;0.00;0.00;;;21.40;99.90;;;;;;5040947;28;20503;-66
2022/08/19 08:30:41;;;;;;;0.00;0.00;;;21.40;99.90;;;;;;5040194;28;20475;-66
2022/08/19 08:33:12;;;;;;;0.00;0.00;;;21.40;99.90;;;;;;5040298;28;20524;-66
2022/08/19 08:35:42;;;;;;;0.00;0.00;;;21.40;99.90;;;;;;5039833;28;20444;-66
2022/08/19 08:38:10;;;;;;;0.00;0.00;;;21.40;99.90;;;;;;5023028;28;20487;-66
2022/08/19 08:40:48;;;;;;;0.00;0.00;;;21.40;99.90;;;;;;5020048;28;20556;-66
2022/08/19 08:43:26;;;;;;;0.00;0.00;;;21.40;99.90;;;;;;5030191;28;21003;-66
2022/08/19 08:46:03;;;;;;;0.00;0.00;;;21.30;99.90;;;;;;5039451;28;20498;-66
2022/08/19 08:48:40;;;;;;;0.00;0.00;;;21.40;99.90;;;;;;5037507;28;21229;-66
2022/08/19 08:51:12;;;;;;;0.00;0.00;;;21.40;99.90;;;;;;5020332;28;20573;-66
2022/08/19 08:53:49;;;;;;;0.00;0.00;;;21.30;99.90;;;;;;5029075;28;20449;-66
2022/08/19 08:56:22;;;;;;;0.00;0.00;;;21.30;99.90;;;;;;5020945;28;20512;-67
2022/08/19 08:59:03;;;;;;;0.00;0.00;;;21.20;99.90;;;;;;5036919;28;20478;-66
2022/08/19 09:01:31;;;;;;;0.00;0.00;;;21.30;99.90;;;;;;5027846;28;20447;-66
2022/08/19 09:03:59;;;;;;;0.00;0.00;;;21.30;99.90;;;;;;5040108;28;20519;-67
2022/08/19 09:06:37;;;;;;;0.00;0.00;;;21.40;99.90;;;;;;5040280;28;20471;-66
2022/08/19 09:09:17;;;;;;;0.00;0.00;;;21.40;99.90;;;;;;5039929;28;21010;-66
2022/08/19 09:11:56;;;;;;;0.00;0.00;;;21.40;99.90;;;;;;5039826;28;21114;-66
2022/08/19 09:14:37;;;;;;;0.00;0.00;;;21.50;99.90;;;;;;5040367;28;20519;-66
2022/08/19 09:17:30;;;;;;;0.00;0.00;;;21.50;99.90;;;;;;5037818;28;20460;-70
2022/08/19 09:20:04;;;;;;;0.00;0.00;;;21.40;99.90;;;;;;5019859;28;20976;-66
2022/08/19 09:22:36;;;;;;;0.00;0.00;;;21.30;99.90;;;;;;5026487;28;20493;-66
2022/08/19 09:25:05;;;;;;;0.00;0.00;;;21.40;99.90;;;;;;5031956;28;21178;-66
2022/08/19 09:27:33;;;;;;;0.00;0.00;;;21.40;99.90;;;;;;5019876;28;20437;-66
2022/08/19 09:30:15;;;;;;;0.00;0.00;;;21.40;99.90;;;;;;5028599;28;20513;-66
2022/08/19 09:32:43;;;;;;;0.00;0.00;;;21.50;99.90;;;;;;5030282;28;20446;-66
2022/08/19 09:35:12;;;;;;;0.00;0.00;;;21.50;99.90;;;;;;5021129;28;20449;-66
2022/08/19 09:37:40;;;;;;;0.00;0.00;;;21.40;99.90;;;;;;5038742;28;20478;-66
2022/08/19 09:40:11;;;;;;;0.00;0.00;;;21.50;99.90;;;;;;5037754;28;20460;-65
2022/08/19 09:42:39;;;;;;;0.00;0.00;;;21.50;99.90;;;;;;5031700;28;20530;-66
2022/08/19 09:45:21;;;;;;;0.00;0.00;;;21.60;99.90;;;;;;5027455;28;20539;-66
2022/08/19 09:47:50;;;;;;;0.00;0.00;;;21.70;99.90;;;;;;5032093;28;20456;-66
2022/08/19 09:50:21;;;;;;;0.00;0.00;;;21.70;99.90;;;;;;5038422;28;20453;-66
2022/08/19 09:52:49;;;;;;;0.00;0.00;;;21.80;99.90;;;;;;5021063;28;21107;-66
2022/08/19 09:55:24;;;;;;;0.00;0.00;;;21.90;99.90;;;;;;5027550;28;20445;-66
2022/08/19 09:58:01;;;;;;;0.00;0.00;;;21.90;99.90;;;;;;5032204;28;20476;-66
2022/08/19 10:00:31;;;;;;;0.00;0.00;;;21.80;99.90;;;;;;5038727;28;20440;-66
2022/08/19 10:02:59;;;;;;;0.00;0.00;;;21.80;99.90;;;;;;5041350;28;20527;-66
2022/08/19 10:08:16;;;;;;;0.00;0.00;;;21.80;99.90;;;;;;5046723;28;20495;-66
2022/08/19 10:10:44;;;;;;;0.00;0.00;;;21.90;99.90;;;;;;5047092;28;20441;-66
2022/08/19 10:13:15;;;;;;;0.00;0.00;;;21.90;99.90;;;;;;5038656;28;20953;-65
2022/08/19 10:15:44;;;;;;;0.00;0.00;;;22.00;99.90;;;;;;5035480;28;20557;-66
2022/08/19 10:18:17;;;;;;;0.00;0.00;;;22.00;99.90;;;;;;5039821;28;20474;-65
2022/08/19 10:20:46;;;;;;;0.00;0.00;;;22.00;99.90;;;;;;5037729;28;20462;-66
2022/08/19 10:23:20;;;;;;;0.00;0.00;;;22.10;99.90;;;;;;5036989;28;20472;-66
2022/08/19 10:25:48;;;;;;;0.00;0.00;;;22.00;99.90;;;;;;5028147;28;20458;-67
2022/08/19 10:28:16;;;;;;;0.00;0.00;;;22.00;99.90;;;;;;5029868;28;20471;-72
2022/08/19 10:30:48;;;;;;;0.00;0.00;;;22.00;99.90;;;;;;5019198;28;20442;-72
2022/08/19 10:33:16;;;;;;;0.00;0.00;;;22.10;99.90;;;;;;5020564;28;20655;-71
2022/08/19 10:36:06;;;;;;;0.00;0.00;;;22.20;99.90;;;;;;5022425;28;20462;-72
2022/08/19 10:38:35;;;;;;;0.00;0.00;;;22.20;99.90;;;;;;5036028;28;20446;-72
2022/08/19 10:41:12;;;;;;;0.00;0.00;;;22.20;99.90;;;;;;5017650;28;20440;-71
2022/08/19 10:43:40;;;;;;;0.00;0.00;;;22.30;99.90;;;;;;5017936;28;20452;-72
2022/08/19 10:46:11;;;;;;;0.00;0.00;;;22.30;99.90;;;;;;5019860;28;20461;-73
2022/08/19 10:48:44;;;;;;;0.00;0.00;;;22.40;99.90;;;;;;5017999;28;20542;-73
2022/08/19 10:53:59;;;;;;;0.00;0.00;;;22.40;99.90;;;;;;5037583;28;20486;-73
2022/08/19 10:59:14;;;;;;;0.00;0.00;;;22.50;99.90;;;;;;5035638;28;20531;-73
2022/08/19 11:01:44;;;;;;;0.00;0.00;;;22.50;99.90;;;;;;5042814;28;20445;-75
2022/08/19 11:04:13;;;;;;;0.00;0.00;;;22.40;99.90;;;;;;5025875;28;20450;-72
2022/08/19 11:06:43;;;;;;;0.00;0.00;;;22.40;99.90;;;;;;5021647;28;20500;-71
2022/08/19 11:09:11;;;;;;;0.00;0.00;;;22.40;99.90;;;;;;5021497;28;20481;-72
2022/08/19 11:11:40;;;;;;;0.00;0.00;;;22.40;99.90;;;;;;5021289;28;20709;-72
2022/08/19 11:14:09;;;;;;;0.00;0.00;;;22.50;99.90;;;;;;5021189;28;20527;-72
2022/08/19 11:16:38;;;;;;;0.00;0.00;;;22.40;99.90;;;;;;5021045;28;20486;-73
2022/08/19 11:19:09;;;;;;;0.00;0.00;;;22.30;99.90;;;;;;5021111;28;20453;-73
2022/08/19 11:21:39;;;;;;;0.00;0.00;;;22.30;99.90;;;;;;5021267;28;20467;-73
2022/08/19 11:24:10;;;;;;;0.00;0.00;;;22.30;99.90;;;;;;5021387;28;20473;-73
2022/08/19 11:26:39;;;;;;;0.00;0.00;;;22.30;99.90;;;;;;5020897;28;20435;-73
2022/08/19 11:29:11;;;;;;;0.00;0.00;;;22.40;99.90;;;;;;5030476;28;20549;-73
2022/08/19 11:31:41;;;;;;;0.00;0.00;;;22.50;99.90;;;;;;5035598;28;21142;-74
2022/08/19 11:34:13;;;;;;;0.00;0.00;;;22.50;99.90;;;;;;5042236;28;20440;-73
2022/08/19 11:36:43;;;;;;;0.00;0.00;;;22.70;99.90;;;;;;5022289;28;20448;-77
2022/08/19 11:39:13;;;;;;;0.00;0.00;;;22.90;99.90;;;;;;5025810;28;21016;-72
2022/08/19 11:41:41;;;;;;;0.00;0.00;;;23.00;99.90;;;;;;5036728;28;20438;-74
2022/08/19 11:44:09;;;;;;;0.00;0.00;;;23.20;99.90;;;;;;5037287;28;21100;-72
2022/08/19 11:46:38;;;;;;;0.00;0.00;;;23.40;99.90;;;;;;5025070;28;20460;-72
2022/08/19 11:49:09;;;;;;;0.00;0.00;;;23.50;99.90;;;;;;5022773;28;20469;-71
2022/08/19 11:51:43;;;;;;;0.00;0.00;;;23.50;99.90;;;;;;5031146;28;20561;-72
2022/08/19 11:54:12;;;;;;;0.00;0.00;;;23.60;99.90;;;;;;5034323;28;20536;-74
2022/08/19 11:56:41;;;;;;;0.00;0.00;;;23.70;99.90;;;;;;5020846;28;20500;-73
2022/08/19 11:59:10;;;;;;;0.00;0.00;;;23.80;99.90;;;;;;5020532;28;20461;-74
2022/08/19 12:01:42;;;;;;;0.00;0.00;;;23.80;99.90;;;;;;5033481;28;20449;-73
2022/08/19 12:04:11;;;;;;;0.00;0.00;;;23.90;99.90;;;;;;5040548;28;20954;-73
2022/08/19 12:06:40;;;;;;;0.00;0.00;;;24.00;99.90;;;;;;5040706;28;20504;-73
2022/08/19 12:09:11;;;;;;;0.00;0.00;;;24.00;99.90;;;;;;5039489;28;20568;-74
2022/08/19 12:11:40;;;;;;;0.00;0.00;;;24.00;99.90;;;;;;5038422;28;20457;-73
2022/08/19 12:14:11;;;;;;;0.00;0.00;;;24.00;99.90;;;;;;5040249;28;20535;-74
2022/08/19 12:16:42;;;;;;;0.00;0.00;;;24.10;99.90;;;;;;5040099;28;21136;-73
2022/08/19 12:19:19;;;;;;;0.00;0.00;;;24.00;99.90;;;;;;5040657;28;20559;-74
2022/08/19 12:21:50;;;;;;;0.00;0.00;;;24.00;99.90;;;;;;5031633;28;20468;-74
2022/08/19 12:24:22;;;;;;;0.00;0.00;;;24.00;99.90;;;;;;5025479;28;20576;-74
2022/08/19 12:26:51;;;;;;;0.00;0.00;;;24.00;99.90;;;;;;5026237;28;20436;-74
2022/08/19 12:29:21;;;;;;;0.00;0.00;;;24.10;99.90;;;;;;5020270;28;20471;-73
2022/08/19 12:31:51;;;;;;;0.00;0.00;;;24.10;99.90;;;;;;5021219;28;20487;-73
2022/08/19 12:34:19;;;;;;;0.00;0.00;;;24.20;99.90;;;;;;5020477;28;20439;-73
2022/08/19 12:36:48;;;;;;;0.00;0.00;;;24.30;99.90;;;;;;5020074;28;20570;-73
2022/08/19 12:39:17;;;;;;;0.00;0.00;;;24.40;99.90;;;;;;5019222;28;20465;-73
2022/08/19 12:41:46;;;;;;;0.00;0.00;;;24.50;99.90;;;;;;5024307;28;20982;-74
2022/08/19 12:44:22;;;;;;;0.00;0.00;;;24.80;99.90;;;;;;5034658;28;20629;-73
2022/08/19 12:46:59;;;;;;;0.00;0.00;;;24.90;99.90;;;;;;5027042;28;20460;-73
2022/08/19 12:49:28;;;;;;;0.00;0.00;;;25.10;99.90;;;;;;5035462;28;20550;-74
2022/08/19 12:52:16;;;;;;;0.00;0.00;;;25.30;99.90;;;;;;5035910;28;20498;-74
2022/08/19 12:54:50;;;;;;;0.00;0.00;;;25.50;99.90;;;;;;5029693;28;20492;-74
2022/08/19 12:57:24;;;;;;;0.00;0.00;;;25.60;99.90;;;;;;5019380;28;20522;-74
2022/08/19 13:00:03;;;;;;;0.00;0.00;;;25.70;99.90;;;;;;5032077;28;20489;-69
2022/08/19 13:02:34;;;;;;;0.00;0.00;;;25.80;99.90;;;;;;5039726;28;20472;-69
2022/08/19 13:05:09;;;;;;;0.00;0.00;;;25.80;99.90;;;;;;5029975;28;20479;-68
2022/08/19 13:07:38;;;;;;;0.00;0.00;;;25.80;99.90;;;;;;5025908;28;20455;-67
2022/08/19 13:10:08;;;;;;;0.00;0.00;;;25.70;99.90;;;;;;5028570;28;20471;-67
2022/08/19 13:12:37;;;;;;;0.00;0.00;;;25.60;99.90;;;;;;5026024;28;21052;-69
2022/08/19 13:15:07;;;;;;;0.00;0.00;;;25.50;99.90;;;;;;5030435;28;20459;-68
2022/08/19 13:17:39;;;;;;;0.00;0.00;;;25.40;99.90;;;;;;5028492;28;20456;-69
2022/08/19 13:20:10;;;;;;;0.00;0.00;;;25.30;99.90;;;;;;5029173;28;20550;-68
2022/08/19 13:22:38;;;;;;;0.00;0.00;;;25.30;99.90;;;;;;5030785;28;20532;-67
2022/08/19 13:25:08;;;;;;;0.00;0.00;;;25.20;99.90;;;;;;5025719;28;21133;-65
2022/08/19 13:27:38;;;;;;;0.00;0.00;;;25.30;99.90;;;;;;5018359;28;20437;-66
2022/08/19 13:33:13;;;;;;;0.00;0.00;;;25.10;99.90;;;;;;5026046;28;20483;-66
2022/08/19 13:35:47;;;;;;;0.00;0.00;;;25.10;99.90;;;;;;5024507;28;21014;-66
2022/08/19 13:38:16;;;;;;;0.00;0.00;;;25.10;99.90;;;;;;5032336;28;20464;-66
2022/08/19 13:40:44;;;;;;;0.00;0.00;;;25.20;99.90;;;;;;5035175;28;20449;-66